Time;durP1;ratioP1;P1;durP2;ratioP2;P2;SDS_P1;SDS_P2;PMS_P1;PMS_P2;Temp;Humidity;BMP_temperature;BMP_pressure;BME280_temperature;BME280_humidity;BME280_pressure;Samples;Min_cycle;Max_cycle;Signal;HPM_P1;HPM_P2
2021/08/01 00:00:01;;;;;;;;;;;;;;;;;;1032992;28;19913;-77
2021/08/01 00:00:32;;;;;;;;;;;;;;;;;;1032962;28;19910;-78
2021/08/01 00:01:02;;;;;;;;;;;;;;;;;;1033220;28;20001;-77
2021/08/01 00:01:32;;;;;;;;;;;;;;;;;;1033191;28;19918;-77
2021/08/01 00:02:02;;;;;;;;;;;;;;;;;;1033229;28;20296;-78
2021/08/01 00:02:33;;;;;;;;;;;;;;;;;;1036940;28;20392;-76
2021/08/01 00:03:03;;;;;;;;;;;;;;;;;;1037030;28;20008;-77
2021/08/01 00:03:33;;;;;;;;;;;;;;;;;;1036868;28;19949;-78
2021/08/01 00:04:03;;;;;;;;;;;;;;;;;;1036903;28;19912;-76
2021/08/01 00:04:34;;;;;;;;;;;;;;;;;;1032663;28;19910;-76
2021/08/01 00:05:04;;;;;;;;;;;;;;;;;;1032699;28;19990;-77
2021/08/01 00:05:34;;;;;;;;;;;;;;;;;;1024752;28;19942;-76
2021/08/01 00:06:04;;;;;;;;;;;;;;;;;;1020842;29;19907;-76
2021/08/01 00:06:35;;;;;;;;;;;;;;;;;;1028974;28;19930;-77
2021/08/01 00:07:05;;;;;;;;;;;;;;;;;;1024870;29;19918;-76
2021/08/01 00:07:35;;;;;;;;;;;;;;;;;;1028941;28;20438;-78
2021/08/01 00:08:05;;;;;;;;;;;;;;;;;;1033078;28;19901;-78
2021/08/01 00:08:36;;;;;;;;;;;;;;;;;;1033138;28;19910;-78
2021/08/01 00:09:06;;;;;;;;;;;;;;;;;;1037104;28;20425;-77
2021/08/01 00:09:36;;;;;;;;;;;;;;;;;;1032757;28;19910;-78
2021/08/01 00:10:06;;;;;;;;;;;;;;;;;;1032831;28;20379;-78
2021/08/01 00:10:36;;;;;;;;;;;;;;;;;;1032985;28;19933;-76
2021/08/01 00:11:07;;;;;;;;;;;;;;;;;;1033140;28;19906;-76
2021/08/01 00:11:37;;;;;;;;;;;;;;;;;;1033229;28;19965;-77
2021/08/01 00:12:07;;;;;;;;;;;;;;;;;;1033158;28;20259;-76
2021/08/01 00:12:40;;;;;;;;;;;;;;;;;;1033188;28;19956;-77
2021/08/01 00:13:10;;;;;;;;;;;;;;;;;;1032712;28;20493;-76
2021/08/01 00:13:41;;;;;;;;;;;;;;;;;;1032954;28;19910;-77
2021/08/01 00:14:11;;;;;;;;;;;;;;;;;;1032777;28;19973;-76
2021/08/01 00:14:41;;;;;;;;;;;;;;;;;;1032847;28;19944;-76
2021/08/01 00:15:11;;;;;;;;;;;;;;;;;;1032234;28;19909;-78
2021/08/01 00:15:42;;;;;;;;;;;;;;;;;;1032642;28;20011;-77
2021/08/01 00:16:12;;;;;;;;;;;;;;;;;;1028939;28;20292;-77
2021/08/01 00:16:42;;;;;;;;;;;;;;;;;;1028826;28;19914;-77
2021/08/01 00:17:12;;;;;;;;;;;;;;;;;;1032803;28;19910;-76
2021/08/01 00:17:43;;;;;;;;;;;;;;;;;;1032901;28;20449;-77
2021/08/01 00:18:13;;;;;;;;;;;;;;;;;;1036797;28;19909;-76
2021/08/01 00:18:43;;;;;;;;;;;;;;;;;;1036847;28;19905;-75
2021/08/01 00:19:13;;;;;;;;;;;;;;;;;;1028626;28;19917;-77
2021/08/01 00:19:44;;;;;;;;;;;;;;;;;;1029000;28;19910;-77
2021/08/01 00:20:14;;;;;;;;;;;;;;;;;;1029014;28;19956;-78
2021/08/01 00:20:45;;;;;;;;;;;;;;;;;;1028936;28;20005;-77
2021/08/01 00:21:15;;;;;;;;;;;;;;;;;;1036977;28;20012;-78
2021/08/01 00:21:45;;;;;;;;;;;;;;;;;;1037019;28;19918;-78
2021/08/01 00:22:15;;;;;;;;;;;;;;;;;;1037063;28;19916;-77
2021/08/01 00:22:46;;;;;;;;;;;;;;;;;;1036913;28;19906;-76
2021/08/01 00:23:16;;;;;;;;;;;;;;;;;;1036975;28;19916;-77
2021/08/01 00:23:46;;;;;;;;;;;;;;;;;;1036860;28;20291;-77
2021/08/01 00:24:16;;;;;;;;;;;;;;;;;;1036859;28;19905;-77
2021/08/01 00:24:47;;;;;;;;;;;;;;;;;;1036792;28;19980;-77
2021/08/01 00:25:17;;;;;;;;;;;;;;;;;;1032850;28;20299;-77
2021/08/01 00:25:47;;;;;;;;;;;;;;;;;;1032870;28;19916;-77
2021/08/01 00:26:17;;;;;;;;;;;;;;;;;;1032769;28;19917;-77
2021/08/01 00:26:48;;;;;;;;;;;;;;;;;;1032691;28;19910;-77
2021/08/01 00:27:18;;;;;;;;;;;;;;;;;;1032738;28;19917;-77
2021/08/01 00:27:49;;;;;;;;;;;;;;;;;;1032890;28;19909;-77
2021/08/01 00:28:19;;;;;;;;;;;;;;;;;;1024879;28;19910;-77
2021/08/01 00:28:50;;;;;;;;;;;;;;;;;;1028564;28;19910;-77
2021/08/01 00:29:20;;;;;;;;;;;;;;;;;;1028851;28;19989;-77
2021/08/01 00:29:50;;;;;;;;;;;;;;;;;;1032860;28;19910;-77
2021/08/01 00:30:20;;;;;;;;;;;;;;;;;;1032906;28;19956;-77
2021/08/01 00:30:51;;;;;;;;;;;;;;;;;;1032806;28;19910;-77
2021/08/01 00:31:21;;;;;;;;;;;;;;;;;;1032816;28;19913;-78
2021/08/01 00:31:51;;;;;;;;;;;;;;;;;;1033034;28;20307;-77
2021/08/01 00:32:21;;;;;;;;;;;;;;;;;;1036857;28;19910;-77
2021/08/01 00:32:52;;;;;;;;;;;;;;;;;;1032670;28;20436;-77
2021/08/01 00:33:22;;;;;;;;;;;;;;;;;;1032638;28;19941;-77
2021/08/01 00:33:52;;;;;;;;;;;;;;;;;;1032683;28;19921;-77
2021/08/01 00:34:23;;;;;;;;;;;;;;;;;;1028839;28;19917;-76
2021/08/01 00:34:53;;;;;;;;;;;;;;;;;;1032620;28;19909;-77
2021/08/01 00:35:23;;;;;;;;;;;;;;;;;;1032860;28;19952;-76
2021/08/01 00:35:53;;;;;;;;;;;;;;;;;;1032959;28;19917;-78
2021/08/01 00:36:24;;;;;;;;;;;;;;;;;;1032792;28;19910;-77
2021/08/01 00:36:54;;;;;;;;;;;;;;;;;;1036881;28;19961;-76
2021/08/01 00:37:24;;;;;;;;;;;;;;;;;;1036706;28;19913;-77
2021/08/01 00:37:54;;;;;;;;;;;;;;;;;;1036869;28;19933;-77
2021/08/01 00:38:25;;;;;;;;;;;;;;;;;;1036858;28;19914;-77
2021/08/01 00:38:55;;;;;;;;;;;;;;;;;;1036566;28;19913;-77
2021/08/01 00:39:25;;;;;;;;;;;;;;;;;;1032769;28;19910;-77
2021/08/01 00:39:55;;;;;;;;;;;;;;;;;;1032788;28;19910;-75
2021/08/01 00:40:26;;;;;;;;;;;;;;;;;;1032727;28;20000;-77
2021/08/01 00:40:56;;;;;;;;;;;;;;;;;;1032874;28;20009;-77
2021/08/01 00:41:26;;;;;;;;;;;;;;;;;;1028705;28;19910;-76
2021/08/01 00:41:56;;;;;;;;;;;;;;;;;;1032791;28;20363;-78
2021/08/01 00:42:27;;;;;;;;;;;;;;;;;;1028801;28;19937;-78
2021/08/01 00:42:57;;;;;;;;;;;;;;;;;;1020549;29;20408;-77
2021/08/01 00:43:27;;;;;;;;;;;;;;;;;;1024684;29;19997;-79
2021/08/01 00:43:57;;;;;;;;;;;;;;;;;;1024790;29;19997;-78
2021/08/01 00:44:28;;;;;;;;;;;;;;;;;;1028648;28;19973;-77
2021/08/01 00:44:58;;;;;;;;;;;;;;;;;;1032837;28;20399;-77
2021/08/01 00:45:29;;;;;;;;;;;;;;;;;;1032864;28;20004;-76
2021/08/01 00:45:59;;;;;;;;;;;;;;;;;;1032747;28;20017;-77
2021/08/01 00:46:29;;;;;;;;;;;;;;;;;;1036736;28;19957;-77
2021/08/01 00:46:59;;;;;;;;;;;;;;;;;;1036691;28;19976;-76
2021/08/01 00:47:30;;;;;;;;;;;;;;;;;;1032681;28;19910;-76
2021/08/01 00:48:00;;;;;;;;;;;;;;;;;;1032745;28;19964;-79
2021/08/01 00:48:30;;;;;;;;;;;;;;;;;;1028805;28;19910;-77
2021/08/01 00:49:01;;;;;;;;;;;;;;;;;;1024429;29;20387;-77
2021/08/01 00:49:31;;;;;;;;;;;;;;;;;;1028635;28;19961;-77
2021/08/01 00:50:02;;;;;;;;;;;;;;;;;;1028515;28;20016;-77
2021/08/01 00:50:32;;;;;;;;;;;;;;;;;;1028710;28;19957;-77
2021/08/01 00:51:02;;;;;;;;;;;;;;;;;;1032502;28;19925;-77
2021/08/01 00:51:32;;;;;;;;;;;;;;;;;;1032735;28;20307;-77
2021/08/01 00:52:03;;;;;;;;;;;;;;;;;;1032563;28;19910;-77
2021/08/01 00:52:33;;;;;;;;;;;;;;;;;;1032689;28;20012;-76
2021/08/01 00:53:03;;;;;;;;;;;;;;;;;;1032650;28;19964;-77
2021/08/01 00:53:33;;;;;;;;;;;;;;;;;;1032726;28;19914;-76
2021/08/01 00:54:04;;;;;;;;;;;;;;;;;;1024537;28;19997;-76
2021/08/01 00:54:34;;;;;;;;;;;;;;;;;;1020568;29;20009;-76
2021/08/01 00:55:04;;;;;;;;;;;;;;;;;;1024687;28;19907;-76
2021/08/01 00:55:35;;;;;;;;;;;;;;;;;;1024413;28;20322;-77
2021/08/01 00:56:05;;;;;;;;;;;;;;;;;;1032457;28;19906;-76
2021/08/01 00:56:35;;;;;;;;;;;;;;;;;;1028403;28;19902;-76
2021/08/01 00:57:06;;;;;;;;;;;;;;;;;;1028641;28;19906;-76
2021/08/01 00:57:36;;;;;;;;;;;;;;;;;;1028590;28;19911;-76
2021/08/01 00:58:06;;;;;;;;;;;;;;;;;;1032688;28;19906;-76
2021/08/01 00:58:36;;;;;;;;;;;;;;;;;;1032547;28;19960;-77
2021/08/01 00:59:07;;;;;;;;;;;;;;;;;;1032471;28;19924;-78
2021/08/01 00:59:37;;;;;;;;;;;;;;;;;;1028498;28;19957;-76
2021/08/01 01:00:11;;;;;;;;;;;;;;;;;;1028615;28;19910;-77
2021/08/01 01:01:05;;;;;;;;;;;;;;;;;;1028565;28;19906;-76
2021/08/01 01:01:35;;;;;;;;;;;;;;;;;;1032250;28;19997;-76
2021/08/01 01:02:06;;;;;;;;;;;;;;;;;;1032875;28;19909;-76
2021/08/01 01:02:37;;;;;;;;;;;;;;;;;;1032632;28;19965;-75
2021/08/01 01:03:07;;;;;;;;;;;;;;;;;;1032651;28;19913;-76
2021/08/01 01:03:37;;;;;;;;;;;;;;;;;;1032671;28;19913;-76
2021/08/01 01:04:09;;;;;;;;;;;;;;;;;;1032679;28;19916;-76
2021/08/01 01:04:39;;;;;;;;;;;;;;;;;;1032935;28;19909;-76
2021/08/01 01:05:09;;;;;;;;;;;;;;;;;;1033035;28;20338;-76
2021/08/01 01:05:39;;;;;;;;;;;;;;;;;;1033003;28;19906;-76
2021/08/01 01:06:10;;;;;;;;;;;;;;;;;;1032656;28;19906;-76
2021/08/01 01:06:40;;;;;;;;;;;;;;;;;;1032498;28;19967;-75
2021/08/01 01:07:10;;;;;;;;;;;;;;;;;;1032539;28;19902;-75
2021/08/01 01:07:40;;;;;;;;;;;;;;;;;;1028444;28;20006;-75
2021/08/01 01:08:11;;;;;;;;;;;;;;;;;;1028791;28;20348;-75
2021/08/01 01:08:41;;;;;;;;;;;;;;;;;;1028558;28;19917;-76
2021/08/01 01:09:11;;;;;;;;;;;;;;;;;;1024526;29;20009;-75
2021/08/01 01:09:42;;;;;;;;;;;;;;;;;;1028599;28;19956;-75
2021/08/01 01:10:12;;;;;;;;;;;;;;;;;;1032787;28;19906;-75
2021/08/01 01:10:42;;;;;;;;;;;;;;;;;;1032728;28;19906;-75
2021/08/01 01:11:13;;;;;;;;;;;;;;;;;;1036705;28;19910;-76
2021/08/01 01:11:43;;;;;;;;;;;;;;;;;;1036904;28;20318;-75
2021/08/01 01:12:14;;;;;;;;;;;;;;;;;;1036719;28;19909;-76
2021/08/01 01:12:44;;;;;;;;;;;;;;;;;;1036577;28;20386;-76
2021/08/01 01:13:14;;;;;;;;;;;;;;;;;;1036711;28;19906;-76
2021/08/01 01:13:44;;;;;;;;;;;;;;;;;;1036698;28;20015;-76
2021/08/01 01:14:15;;;;;;;;;;;;;;;;;;1032741;28;20364;-76
2021/08/01 01:14:45;;;;;;;;;;;;;;;;;;1032610;28;19913;-76
2021/08/01 01:15:15;;;;;;;;;;;;;;;;;;1032664;28;19910;-76
2021/08/01 01:15:45;;;;;;;;;;;;;;;;;;1032621;28;19913;-76
2021/08/01 01:16:16;;;;;;;;;;;;;;;;;;1028765;28;19913;-76
2021/08/01 01:16:46;;;;;;;;;;;;;;;;;;1020550;29;19915;-76
2021/08/01 01:17:16;;;;;;;;;;;;;;;;;;1020680;29;19903;-76
2021/08/01 01:17:47;;;;;;;;;;;;;;;;;;1016787;29;19907;-76
2021/08/01 01:18:17;;;;;;;;;;;;;;;;;;1024885;29;19912;-76
2021/08/01 01:18:47;;;;;;;;;;;;;;;;;;1032735;28;19937;-77
2021/08/01 01:19:17;;;;;;;;;;;;;;;;;;1028640;28;19907;-76
2021/08/01 01:19:48;;;;;;;;;;;;;;;;;;1032653;28;19933;-76
2021/08/01 01:20:18;;;;;;;;;;;;;;;;;;1032746;28;19928;-76
2021/08/01 01:20:48;;;;;;;;;;;;;;;;;;1032818;28;19905;-76
2021/08/01 01:21:18;;;;;;;;;;;;;;;;;;1028604;28;19913;-76
2021/08/01 01:21:49;;;;;;;;;;;;;;;;;;1028718;28;19922;-76
2021/08/01 01:22:19;;;;;;;;;;;;;;;;;;1028704;28;19903;-76
2021/08/01 01:22:49;;;;;;;;;;;;;;;;;;1028785;28;20005;-76
2021/08/01 01:23:19;;;;;;;;;;;;;;;;;;1032929;28;19937;-76
2021/08/01 01:23:50;;;;;;;;;;;;;;;;;;1033099;28;20283;-76
2021/08/01 01:24:20;;;;;;;;;;;;;;;;;;1036713;28;19906;-76
2021/08/01 01:24:50;;;;;;;;;;;;;;;;;;1036823;28;19906;-76
2021/08/01 01:25:20;;;;;;;;;;;;;;;;;;1036676;28;19905;-76
2021/08/01 01:25:51;;;;;;;;;;;;;;;;;;1036897;28;20345;-76
2021/08/01 01:26:21;;;;;;;;;;;;;;;;;;1036786;28;19995;-75
2021/08/01 01:26:51;;;;;;;;;;;;;;;;;;1036990;28;19905;-76
2021/08/01 01:27:21;;;;;;;;;;;;;;;;;;1028592;28;20315;-77
2021/08/01 01:27:52;;;;;;;;;;;;;;;;;;1032836;28;20311;-75
2021/08/01 01:28:22;;;;;;;;;;;;;;;;;;1032710;28;19902;-75
2021/08/01 01:28:52;;;;;;;;;;;;;;;;;;1028501;28;19910;-76
2021/08/01 01:29:22;;;;;;;;;;;;;;;;;;1032561;28;20479;-75
2021/08/01 01:29:53;;;;;;;;;;;;;;;;;;1032757;28;19906;-75
2021/08/01 01:30:23;;;;;;;;;;;;;;;;;;1032724;28;20275;-75
2021/08/01 01:30:53;;;;;;;;;;;;;;;;;;1033037;28;19910;-75
2021/08/01 01:31:24;;;;;;;;;;;;;;;;;;1032929;28;19906;-76
2021/08/01 01:31:54;;;;;;;;;;;;;;;;;;1032900;28;19953;-76
2021/08/01 01:32:25;;;;;;;;;;;;;;;;;;1032624;28;19908;-75
2021/08/01 01:32:55;;;;;;;;;;;;;;;;;;1028505;28;20042;-75
2021/08/01 01:33:25;;;;;;;;;;;;;;;;;;1032677;28;19934;-75
2021/08/01 01:33:55;;;;;;;;;;;;;;;;;;1028731;29;19930;-76
2021/08/01 01:34:26;;;;;;;;;;;;;;;;;;1028886;29;19907;-75
2021/08/01 01:34:56;;;;;;;;;;;;;;;;;;1032879;28;19906;-76
2021/08/01 01:35:26;;;;;;;;;;;;;;;;;;1035815;28;19973;-75
2021/08/01 01:35:57;;;;;;;;;;;;;;;;;;1032765;28;19918;-75
2021/08/01 01:36:27;;;;;;;;;;;;;;;;;;1028948;28;19916;-75
2021/08/01 01:36:57;;;;;;;;;;;;;;;;;;1028825;28;20324;-75
2021/08/01 01:37:28;;;;;;;;;;;;;;;;;;1028817;28;19933;-75
2021/08/01 01:37:58;;;;;;;;;;;;;;;;;;1032449;28;19906;-75
2021/08/01 01:38:28;;;;;;;;;;;;;;;;;;1036740;28;20259;-75
2021/08/01 01:38:58;;;;;;;;;;;;;;;;;;1032539;28;19913;-77
2021/08/01 01:39:29;;;;;;;;;;;;;;;;;;1032916;28;19913;-75
2021/08/01 01:39:59;;;;;;;;;;;;;;;;;;1032706;28;19997;-75
2021/08/01 01:40:29;;;;;;;;;;;;;;;;;;1032735;28;20421;-75
2021/08/01 01:40:59;;;;;;;;;;;;;;;;;;1036730;28;19941;-75
2021/08/01 01:41:30;;;;;;;;;;;;;;;;;;1032659;28;19910;-75
2021/08/01 01:42:00;;;;;;;;;;;;;;;;;;1032687;28;19910;-75
2021/08/01 01:42:30;;;;;;;;;;;;;;;;;;1028613;28;19926;-76
2021/08/01 01:43:00;;;;;;;;;;;;;;;;;;1028572;28;20009;-75
2021/08/01 01:43:31;;;;;;;;;;;;;;;;;;1032668;28;19948;-75
2021/08/01 01:44:01;;;;;;;;;;;;;;;;;;1032566;28;19984;-76
2021/08/01 01:44:31;;;;;;;;;;;;;;;;;;1036643;28;19910;-75
2021/08/01 01:45:02;;;;;;;;;;;;;;;;;;1036600;28;19909;-76
2021/08/01 01:45:32;;;;;;;;;;;;;;;;;;1036756;28;20329;-76
2021/08/01 01:46:02;;;;;;;;;;;;;;;;;;1036677;28;19993;-76
2021/08/01 01:46:32;;;;;;;;;;;;;;;;;;1036833;28;19953;-76
2021/08/01 01:47:02;;;;;;;;;;;;;;;;;;1032624;28;20438;-76
2021/08/01 01:47:33;;;;;;;;;;;;;;;;;;1032661;28;19934;-77
2021/08/01 01:48:03;;;;;;;;;;;;;;;;;;1032495;28;19917;-77
2021/08/01 01:48:33;;;;;;;;;;;;;;;;;;1028903;28;20376;-79
2021/08/01 01:49:03;;;;;;;;;;;;;;;;;;1024570;28;19915;-79
2021/08/01 01:49:34;;;;;;;;;;;;;;;;;;1024778;28;20037;-79
2021/08/01 01:50:04;;;;;;;;;;;;;;;;;;1024841;29;19946;-78
2021/08/01 01:50:34;;;;;;;;;;;;;;;;;;1028844;28;19917;-78
2021/08/01 01:51:05;;;;;;;;;;;;;;;;;;1032717;28;19960;-79
2021/08/01 01:51:35;;;;;;;;;;;;;;;;;;1028794;28;19982;-78
2021/08/01 01:52:05;;;;;;;;;;;;;;;;;;1028606;28;19907;-79
2021/08/01 01:52:35;;;;;;;;;;;;;;;;;;1028583;28;19920;-78
2021/08/01 01:53:06;;;;;;;;;;;;;;;;;;1028573;28;19917;-78
2021/08/01 01:53:36;;;;;;;;;;;;;;;;;;1032818;28;19917;-78
2021/08/01 01:54:06;;;;;;;;;;;;;;;;;;1032874;28;19910;-78
2021/08/01 01:54:36;;;;;;;;;;;;;;;;;;1028676;28;19910;-78
2021/08/01 01:55:07;;;;;;;;;;;;;;;;;;1028647;28;20306;-78
2021/08/01 01:55:38;;;;;;;;;;;;;;;;;;1028623;28;19954;-78
2021/08/01 01:56:08;;;;;;;;;;;;;;;;;;1028628;28;19907;-78
2021/08/01 01:56:38;;;;;;;;;;;;;;;;;;1024499;29;19957;-78
2021/08/01 01:57:09;;;;;;;;;;;;;;;;;;1020635;29;19915;-78
2021/08/01 01:57:39;;;;;;;;;;;;;;;;;;1016757;29;20305;-77
2021/08/01 01:58:11;;;;;;;;;;;;;;;;;;1020886;28;19907;-78
2021/08/01 01:58:41;;;;;;;;;;;;;;;;;;1024607;28;20049;-79
2021/08/01 01:59:12;;;;;;;;;;;;;;;;;;1024962;28;19911;-77
2021/08/01 01:59:42;;;;;;;;;;;;;;;;;;1028614;28;19989;-78
2021/08/01 02:00:12;;;;;;;;;;;;;;;;;;1024744;28;20439;-78
2021/08/01 02:00:43;;;;;;;;;;;;;;;;;;1028570;28;19902;-79
2021/08/01 02:01:13;;;;;;;;;;;;;;;;;;1028635;28;20348;-79
2021/08/01 02:01:43;;;;;;;;;;;;;;;;;;1024489;28;20041;-79
2021/08/01 02:02:14;;;;;;;;;;;;;;;;;;1024689;29;19938;-78
2021/08/01 02:02:44;;;;;;;;;;;;;;;;;;1024599;28;19961;-79
2021/08/01 02:03:14;;;;;;;;;;;;;;;;;;1024715;28;19902;-78
2021/08/01 02:03:45;;;;;;;;;;;;;;;;;;1028675;28;19911;-78
2021/08/01 02:04:15;;;;;;;;;;;;;;;;;;1032812;28;19953;-78
2021/08/01 02:04:45;;;;;;;;;;;;;;;;;;1032762;28;19906;-78
2021/08/01 02:05:16;;;;;;;;;;;;;;;;;;1036866;28;20417;-78
2021/08/01 02:05:46;;;;;;;;;;;;;;;;;;1036575;28;19913;-78
2021/08/01 02:06:16;;;;;;;;;;;;;;;;;;1032628;28;19910;-78
2021/08/01 02:06:46;;;;;;;;;;;;;;;;;;1032716;28;19957;-78
2021/08/01 02:07:20;;;;;;;;;;;;;;;;;;1028679;28;19906;-78
2021/08/01 02:07:50;;;;;;;;;;;;;;;;;;1029084;28;20045;-78
2021/08/01 02:08:20;;;;;;;;;;;;;;;;;;1028446;28;19964;-79
2021/08/01 02:08:51;;;;;;;;;;;;;;;;;;1024953;28;20257;-79
2021/08/01 02:09:21;;;;;;;;;;;;;;;;;;1024468;28;19911;-78
2021/08/01 02:09:51;;;;;;;;;;;;;;;;;;1024578;28;20451;-78
2021/08/01 02:10:21;;;;;;;;;;;;;;;;;;1024565;28;19938;-78
2021/08/01 02:10:52;;;;;;;;;;;;;;;;;;1024701;28;20284;-79
2021/08/01 02:11:22;;;;;;;;;;;;;;;;;;1024520;29;20006;-79
2021/08/01 02:11:52;;;;;;;;;;;;;;;;;;1020544;29;19946;-78
2021/08/01 02:12:22;;;;;;;;;;;;;;;;;;1024730;29;19910;-78
2021/08/01 02:12:53;;;;;;;;;;;;;;;;;;1024389;28;20477;-79
2021/08/01 02:13:23;;;;;;;;;;;;;;;;;;1020538;29;19931;-78
2021/08/01 02:13:53;;;;;;;;;;;;;;;;;;1020574;29;20375;-78
2021/08/01 02:14:24;;;;;;;;;;;;;;;;;;1020643;29;19962;-79
2021/08/01 02:14:54;;;;;;;;;;;;;;;;;;1016631;29;19919;-78
2021/08/01 02:15:24;;;;;;;;;;;;;;;;;;1020697;29;19911;-78
2021/08/01 02:15:54;;;;;;;;;;;;;;;;;;1024663;28;19910;-78
2021/08/01 02:16:25;;;;;;;;;;;;;;;;;;1024509;28;20369;-79
2021/08/01 02:16:55;;;;;;;;;;;;;;;;;;1032456;28;19941;-78
2021/08/01 02:17:25;;;;;;;;;;;;;;;;;;1032718;28;19928;-78
2021/08/01 02:17:55;;;;;;;;;;;;;;;;;;1032632;28;19952;-78
2021/08/01 02:18:26;;;;;;;;;;;;;;;;;;1032636;28;19996;-79
2021/08/01 02:18:56;;;;;;;;;;;;;;;;;;1028414;28;19910;-79
2021/08/01 02:19:26;;;;;;;;;;;;;;;;;;1028643;28;19906;-79
2021/08/01 02:19:57;;;;;;;;;;;;;;;;;;1024499;29;19989;-78
2021/08/01 02:20:28;;;;;;;;;;;;;;;;;;1024431;29;19907;-79
2021/08/01 02:20:58;;;;;;;;;;;;;;;;;;1024459;29;19994;-78
2021/08/01 02:21:28;;;;;;;;;;;;;;;;;;1028481;28;19902;-78
2021/08/01 02:21:58;;;;;;;;;;;;;;;;;;1032510;28;19906;-78
2021/08/01 02:22:29;;;;;;;;;;;;;;;;;;1036582;28;20043;-79
2021/08/01 02:22:59;;;;;;;;;;;;;;;;;;1032357;28;19948;-79
2021/08/01 02:23:29;;;;;;;;;;;;;;;;;;1032550;28;19906;-79
2021/08/01 02:23:59;;;;;;;;;;;;;;;;;;1032635;28;19902;-79
2021/08/01 02:24:30;;;;;;;;;;;;;;;;;;1032349;28;19906;-79
2021/08/01 02:25:00;;;;;;;;;;;;;;;;;;1032650;28;19929;-78
2021/08/01 02:25:30;;;;;;;;;;;;;;;;;;1028377;28;19907;-79
2021/08/01 02:26:01;;;;;;;;;;;;;;;;;;1024476;29;19903;-78
2021/08/01 02:26:31;;;;;;;;;;;;;;;;;;1020418;29;19935;-79
2021/08/01 02:27:01;;;;;;;;;;;;;;;;;;1020707;29;19914;-79
2021/08/01 02:27:31;;;;;;;;;;;;;;;;;;1024611;28;20276;-78
2021/08/01 02:28:02;;;;;;;;;;;;;;;;;;1024624;28;19930;-78
2021/08/01 02:28:32;;;;;;;;;;;;;;;;;;1032516;28;19906;-79
2021/08/01 02:29:02;;;;;;;;;;;;;;;;;;1032630;28;19912;-79
2021/08/01 02:29:32;;;;;;;;;;;;;;;;;;1032564;28;20377;-78
2021/08/01 02:30:03;;;;;;;;;;;;;;;;;;1032474;28;19952;-79
2021/08/01 02:30:33;;;;;;;;;;;;;;;;;;1032532;28;19906;-78
2021/08/01 02:31:03;;;;;;;;;;;;;;;;;;1032570;28;20363;-79
2021/08/01 02:31:34;;;;;;;;;;;;;;;;;;1032483;28;20319;-78
2021/08/01 02:32:04;;;;;;;;;;;;;;;;;;1028533;28;20399;-78
2021/08/01 02:32:34;;;;;;;;;;;;;;;;;;1032375;28;19906;-79
2021/08/01 02:33:04;;;;;;;;;;;;;;;;;;1032401;28;20026;-78
2021/08/01 02:33:35;;;;;;;;;;;;;;;;;;1032399;28;20002;-78
2021/08/01 02:34:05;;;;;;;;;;;;;;;;;;1032691;28;20411;-79
2021/08/01 02:34:35;;;;;;;;;;;;;;;;;;1028678;28;19966;-78
2021/08/01 02:35:05;;;;;;;;;;;;;;;;;;1028636;28;19906;-78
2021/08/01 02:35:36;;;;;;;;;;;;;;;;;;1032530;28;19902;-78
2021/08/01 02:36:06;;;;;;;;;;;;;;;;;;1028382;28;19937;-78
2021/08/01 02:36:36;;;;;;;;;;;;;;;;;;1032596;28;19993;-78
2021/08/01 02:37:07;;;;;;;;;;;;;;;;;;1032661;28;20009;-78
2021/08/01 02:37:37;;;;;;;;;;;;;;;;;;1032717;28;19906;-78
2021/08/01 02:38:08;;;;;;;;;;;;;;;;;;1036472;28;19966;-77
2021/08/01 02:38:38;;;;;;;;;;;;;;;;;;1037177;28;19913;-78
2021/08/01 02:39:09;;;;;;;;;;;;;;;;;;1037520;28;19913;-78
2021/08/01 02:39:39;;;;;;;;;;;;;;;;;;1033293;28;19917;-78
2021/08/01 02:40:09;;;;;;;;;;;;;;;;;;1033419;28;19914;-78
2021/08/01 02:40:39;;;;;;;;;;;;;;;;;;1029363;28;19928;-80
2021/08/01 02:41:11;;;;;;;;;;;;;;;;;;1029195;28;19910;-79
2021/08/01 02:41:41;;;;;;;;;;;;;;;;;;1033341;28;20414;-80
2021/08/01 02:42:11;;;;;;;;;;;;;;;;;;1033337;28;19917;-79
2021/08/01 02:42:42;;;;;;;;;;;;;;;;;;1029400;28;19910;-79
2021/08/01 02:43:12;;;;;;;;;;;;;;;;;;1033320;28;19910;-79
2021/08/01 02:43:42;;;;;;;;;;;;;;;;;;1029338;28;20009;-79
2021/08/01 02:44:13;;;;;;;;;;;;;;;;;;1025249;28;19911;-80
2021/08/01 02:44:43;;;;;;;;;;;;;;;;;;1025224;29;19937;-79
2021/08/01 02:45:13;;;;;;;;;;;;;;;;;;1017423;29;19911;-79
2021/08/01 02:45:43;;;;;;;;;;;;;;;;;;1021263;29;20385;-80
2021/08/01 02:46:14;;;;;;;;;;;;;;;;;;1021357;29;20005;-80
2021/08/01 02:46:44;;;;;;;;;;;;;;;;;;1021213;29;19915;-80
2021/08/01 02:47:14;;;;;;;;;;;;;;;;;;1029199;28;19958;-80
2021/08/01 02:47:44;;;;;;;;;;;;;;;;;;1029282;28;19976;-78
2021/08/01 02:48:15;;;;;;;;;;;;;;;;;;1033149;28;19906;-78
2021/08/01 02:48:45;;;;;;;;;;;;;;;;;;1033296;28;19909;-78
2021/08/01 02:49:15;;;;;;;;;;;;;;;;;;1033344;28;19910;-78
2021/08/01 02:49:46;;;;;;;;;;;;;;;;;;1037358;28;19910;-77
2021/08/01 02:50:16;;;;;;;;;;;;;;;;;;1037510;28;20371;-78
2021/08/01 02:50:47;;;;;;;;;;;;;;;;;;1033344;28;19964;-78
2021/08/01 02:51:17;;;;;;;;;;;;;;;;;;1033302;28;19910;-79
2021/08/01 02:51:47;;;;;;;;;;;;;;;;;;1035986;28;20000;-79
2021/08/01 02:52:17;;;;;;;;;;;;;;;;;;1038216;28;19894;-79
2021/08/01 02:52:48;;;;;;;;;;;;;;;;;;1037921;28;19893;-79
2021/08/01 02:53:18;;;;;;;;;;;;;;;;;;1034095;28;19894;-79
2021/08/01 02:53:48;;;;;;;;;;;;;;;;;;1038271;28;19917;-79
2021/08/01 02:54:18;;;;;;;;;;;;;;;;;;1034201;28;19990;-79
2021/08/01 02:54:49;;;;;;;;;;;;;;;;;;1037755;28;19910;-79
2021/08/01 02:55:19;;;;;;;;;;;;;;;;;;1033327;28;19913;-79
2021/08/01 02:55:49;;;;;;;;;;;;;;;;;;1029168;28;20396;-79
2021/08/01 02:56:52;;;;;;;;;;;;;;;;;;1022687;29;19930;-79
2021/08/01 02:57:22;;;;;;;;;;;;;;;;;;1025820;28;20416;-79
2021/08/01 02:57:53;;;;;;;;;;;;;;;;;;1025791;28;19945;-78
2021/08/01 02:58:23;;;;;;;;;;;;;;;;;;1021539;29;19956;-78
2021/08/01 02:59:30;;;;;;;;;;;;;;;;;;1025113;28;20292;-78
2021/08/01 03:00:00;;;;;;;;;;;;;;;;;;1030173;28;19910;-79
2021/08/01 03:00:30;;;;;;;;;;;;;;;;;;1024998;29;19911;-78
2021/08/01 03:01:00;;;;;;;;;;;;;;;;;;1029162;28;19949;-78
2021/08/01 03:01:31;;;;;;;;;;;;;;;;;;1029160;28;19910;-78
2021/08/01 03:02:01;;;;;;;;;;;;;;;;;;1032263;28;20374;-78
2021/08/01 03:02:31;;;;;;;;;;;;;;;;;;1041283;28;19905;-78
2021/08/01 03:03:01;;;;;;;;;;;;;;;;;;1039638;28;19906;-78
2021/08/01 03:03:32;;;;;;;;;;;;;;;;;;1037380;28;20445;-78
2021/08/01 03:04:02;;;;;;;;;;;;;;;;;;1037235;28;19940;-78
2021/08/01 03:04:38;;;;;;;;;;;;;;;;;;1033183;28;20268;-78
2021/08/01 03:05:08;;;;;;;;;;;;;;;;;;1033322;28;19988;-79
2021/08/01 03:05:39;;;;;;;;;;;;;;;;;;1034074;28;20351;-79
2021/08/01 03:06:09;;;;;;;;;;;;;;;;;;1033868;28;19988;-79
2021/08/01 03:06:40;;;;;;;;;;;;;;;;;;1037471;28;19948;-78
2021/08/01 03:07:11;;;;;;;;;;;;;;;;;;1029040;28;19906;-78
2021/08/01 03:07:41;;;;;;;;;;;;;;;;;;1029377;28;20376;-79
2021/08/01 03:08:14;;;;;;;;;;;;;;;;;;1033101;28;19909;-78
2021/08/01 03:08:44;;;;;;;;;;;;;;;;;;1030181;28;19917;-78
2021/08/01 03:09:14;;;;;;;;;;;;;;;;;;1041351;28;19908;-79
2021/08/01 03:09:45;;;;;;;;;;;;;;;;;;1041441;28;19910;-78
2021/08/01 03:10:15;;;;;;;;;;;;;;;;;;1037296;28;20270;-78
2021/08/01 03:10:45;;;;;;;;;;;;;;;;;;1037465;28;19905;-78
2021/08/01 03:11:18;;;;;;;;;;;;;;;;;;1029039;28;19902;-79
2021/08/01 03:11:49;;;;;;;;;;;;;;;;;;1025680;28;20370;-78
2021/08/01 03:12:19;;;;;;;;;;;;;;;;;;1029105;28;19906;-78
2021/08/01 03:12:49;;;;;;;;;;;;;;;;;;1025612;28;19911;-78
2021/08/01 03:13:19;;;;;;;;;;;;;;;;;;1029305;28;19985;-78
2021/08/01 03:13:50;;;;;;;;;;;;;;;;;;1033220;28;19913;-79
2021/08/01 03:14:20;;;;;;;;;;;;;;;;;;1029345;28;19906;-78
2021/08/01 03:14:50;;;;;;;;;;;;;;;;;;1033158;28;20346;-78
2021/08/01 03:15:21;;;;;;;;;;;;;;;;;;1033364;28;19906;-79
2021/08/01 03:15:51;;;;;;;;;;;;;;;;;;1029086;28;19910;-79
2021/08/01 03:16:21;;;;;;;;;;;;;;;;;;1033246;28;20431;-79
2021/08/01 03:16:51;;;;;;;;;;;;;;;;;;1029099;28;19918;-79
2021/08/01 03:17:22;;;;;;;;;;;;;;;;;;1029257;28;19961;-79
2021/08/01 03:17:52;;;;;;;;;;;;;;;;;;1029297;28;20297;-78
2021/08/01 03:18:22;;;;;;;;;;;;;;;;;;1025232;29;19915;-78
2021/08/01 03:18:52;;;;;;;;;;;;;;;;;;1029291;28;19960;-79
2021/08/01 03:19:23;;;;;;;;;;;;;;;;;;1033215;28;20359;-78
2021/08/01 03:19:53;;;;;;;;;;;;;;;;;;1033155;28;19941;-79
2021/08/01 03:20:23;;;;;;;;;;;;;;;;;;1037409;28;20004;-79
2021/08/01 03:20:53;;;;;;;;;;;;;;;;;;1029099;28;19917;-79
2021/08/01 03:21:24;;;;;;;;;;;;;;;;;;1033222;28;19910;-79
2021/08/01 03:21:54;;;;;;;;;;;;;;;;;;1029068;28;20383;-79
2021/08/01 03:22:24;;;;;;;;;;;;;;;;;;1029336;28;19992;-79
2021/08/01 03:22:54;;;;;;;;;;;;;;;;;;1037126;28;19916;-79
2021/08/01 03:23:25;;;;;;;;;;;;;;;;;;1037166;28;19989;-78
2021/08/01 03:23:55;;;;;;;;;;;;;;;;;;1041561;28;19956;-78
2021/08/01 03:24:25;;;;;;;;;;;;;;;;;;1041389;28;19928;-79
2021/08/01 03:24:55;;;;;;;;;;;;;;;;;;1041375;28;19916;-78
2021/08/01 03:25:26;;;;;;;;;;;;;;;;;;1037172;28;19909;-78
2021/08/01 03:25:56;;;;;;;;;;;;;;;;;;1037383;28;19979;-78
2021/08/01 03:26:26;;;;;;;;;;;;;;;;;;1033106;28;19948;-78
2021/08/01 03:26:56;;;;;;;;;;;;;;;;;;1029374;28;20391;-78
2021/08/01 03:27:27;;;;;;;;;;;;;;;;;;1030727;28;19907;-79
2021/08/01 03:27:57;;;;;;;;;;;;;;;;;;1029222;28;19982;-79
2021/08/01 03:28:27;;;;;;;;;;;;;;;;;;1029217;28;19914;-79